createdAt,value
2022-12-11T00:00:46.923Z,92.29
2022-12-11T00:03:16.428Z,91.88
2022-12-11T00:05:43.336Z,91.57
2022-12-11T00:08:10.115Z,93.54
2022-12-11T00:10:38.024Z,91.56
2022-12-11T00:13:05.271Z,92.07
2022-12-11T00:15:32.005Z,92.34
2022-12-11T00:17:58.634Z,94.89
2022-12-11T00:20:25.361Z,94.58
2022-12-11T00:22:51.984Z,94.08
2022-12-11T00:25:18.744Z,92.86
2022-12-11T00:27:46.727Z,92.96
2022-12-11T00:30:14.298Z,92.56
2022-12-11T00:32:41.148Z,92.20
2022-12-11T00:35:08.685Z,91.57
2022-12-11T00:37:37.020Z,89.87
2022-12-11T00:40:03.996Z,89.85
2022-12-11T00:42:30.582Z,89.71
2022-12-11T00:44:57.223Z,92.38
2022-12-11T00:47:23.901Z,92.60
2022-12-11T00:49:50.561Z,91.96
2022-12-11T00:52:18.032Z,90.82
2022-12-11T00:54:45.136Z,91.44
2022-12-11T00:57:11.785Z,91.42
2022-12-11T00:59:38.607Z,91.04
2022-12-11T01:02:05.211Z,90.59
2022-12-11T01:04:31.898Z,90.93
2022-12-11T01:06:58.561Z,90.17
2022-12-11T01:09:48.663Z,88.90
2022-12-11T01:12:15.291Z,88.86
2022-12-11T01:14:42.011Z,91.55
2022-12-11T01:17:08.649Z,91.80
2022-12-11T01:19:35.221Z,90.73
2022-12-11T01:22:01.844Z,90.81
2022-12-11T01:24:28.559Z,90.52
2022-12-11T01:26:55.176Z,89.80
2022-12-11T01:29:21.795Z,89.01
2022-12-11T01:31:48.480Z,90.85
2022-12-11T01:34:15.053Z,90.48
2022-12-11T01:36:41.706Z,89.63
2022-12-11T01:39:08.406Z,89.40
2022-12-11T01:41:35.040Z,89.79
2022-12-11T01:44:08.591Z,89.32
2022-12-11T01:46:36.454Z,90.23
2022-12-11T01:49:05.933Z,92.29
2022-12-11T01:51:33.571Z,92.90
2022-12-11T01:54:02.294Z,91.99
2022-12-11T01:56:29.661Z,92.88
2022-12-11T01:58:57.657Z,92.10
2022-12-11T02:02:22.850Z,97.41
2022-12-11T02:04:49.602Z,99.84
2022-12-11T02:07:16.358Z,100.00
2022-12-11T02:09:44.455Z,100.00
2022-12-11T02:12:29.166Z,100.00
2022-12-11T02:15:17.465Z,98.80
2022-12-11T02:18:15.356Z,99.13
2022-12-11T02:21:01.131Z,96.52
2022-12-11T02:23:32.515Z,96.50
2022-12-11T02:26:21.181Z,97.04
2022-12-11T02:28:58.534Z,95.80
2022-12-11T02:31:55.962Z,94.82
2022-12-11T02:34:42.163Z,93.66
2022-12-11T02:37:12.509Z,93.74
2022-12-11T02:39:39.905Z,93.15
2022-12-11T02:42:06.497Z,93.39
2022-12-11T02:44:33.738Z,95.47
2022-12-11T02:47:00.453Z,95.12
2022-12-11T02:49:27.165Z,91.97
2022-12-11T02:51:53.739Z,90.14
2022-12-11T02:54:22.775Z,90.31
2022-12-11T02:57:06.615Z,89.81
2022-12-11T02:59:38.217Z,88.99
2022-12-11T03:02:04.976Z,89.81
2022-12-11T03:04:31.731Z,88.77
2022-12-11T03:07:00.025Z,88.50
2022-12-11T03:09:27.870Z,89.84
2022-12-11T03:11:54.472Z,90.23
2022-12-11T03:14:21.097Z,89.71
2022-12-11T03:17:14.434Z,90.11
2022-12-11T03:20:06.885Z,90.87
2022-12-11T03:22:39.274Z,90.71
2022-12-11T03:25:26.047Z,91.08
2022-12-11T03:28:11.464Z,88.68
2022-12-11T03:30:38.156Z,84.95
2022-12-11T03:33:06.944Z,84.10
2022-12-11T03:35:36.089Z,85.62
2022-12-11T03:38:05.472Z,85.02
2022-12-11T03:40:33.285Z,86.13
2022-12-11T03:42:59.913Z,87.47
2022-12-11T03:45:26.521Z,85.49
2022-12-11T03:47:53.231Z,85.04
2022-12-11T03:50:20.032Z,84.95
2022-12-11T03:52:46.746Z,85.32
2022-12-11T03:55:14.256Z,86.12
2022-12-11T03:57:40.949Z,86.14
2022-12-11T04:00:14.613Z,85.71
2022-12-11T04:02:41.552Z,85.10
2022-12-11T04:05:08.849Z,84.74
2022-12-11T04:07:35.761Z,84.63
2022-12-11T04:10:02.450Z,85.32
2022-12-11T04:12:29.122Z,85.24
2022-12-11T04:15:01.914Z,84.36
2022-12-11T04:17:50.889Z,84.20
2022-12-11T04:20:36.320Z,84.01
2022-12-11T04:23:32.349Z,84.92
2022-12-11T04:26:14.825Z,85.00
2022-12-11T04:28:42.216Z,86.42
2022-12-11T04:31:16.733Z,86.48
2022-12-11T04:33:43.449Z,83.92
2022-12-11T04:36:10.349Z,84.10
2022-12-11T04:38:37.131Z,84.99
2022-12-11T04:41:10.425Z,84.63
2022-12-11T04:43:37.133Z,85.74
2022-12-11T04:46:29.916Z,84.61
2022-12-11T04:48:57.914Z,82.96
2022-12-11T04:51:24.919Z,84.01
2022-12-11T04:53:51.595Z,83.88
2022-12-11T04:56:18.242Z,82.09
2022-12-11T04:58:45.046Z,79.35
2022-12-11T05:01:19.867Z,75.43
2022-12-11T05:03:46.899Z,74.69
2022-12-11T05:06:13.732Z,73.05
2022-12-11T05:08:41.233Z,72.46
2022-12-11T05:11:10.152Z,74.48
2022-12-11T05:13:36.733Z,73.51
2022-12-11T05:16:05.021Z,73.10
2022-12-11T05:18:31.700Z,72.35
2022-12-11T05:20:59.764Z,73.75
2022-12-11T05:23:26.454Z,74.89
2022-12-11T05:25:57.542Z,73.95
2022-12-11T05:28:25.001Z,75.12
2022-12-11T05:31:09.111Z,73.06
2022-12-11T05:33:35.803Z,77.18
2022-12-11T05:36:02.408Z,78.66
2022-12-11T05:38:29.041Z,80.64
2022-12-11T05:40:59.566Z,80.83
2022-12-11T05:43:27.200Z,82.58
2022-12-11T05:45:54.226Z,82.85
2022-12-11T05:48:21.110Z,84.46
2022-12-11T05:51:00.622Z,83.72
2022-12-11T05:53:27.518Z,82.68
2022-12-11T05:55:54.100Z,79.95
2022-12-11T05:58:20.818Z,77.59
2022-12-11T06:00:47.953Z,75.50
2022-12-11T06:03:14.661Z,76.77
2022-12-11T06:05:41.781Z,78.32
2022-12-11T06:08:08.564Z,78.68
2022-12-11T06:10:35.304Z,78.68
2022-12-11T06:13:01.951Z,78.68
2022-12-11T06:15:28.589Z,78.32
2022-12-11T06:17:55.168Z,78.54
2022-12-11T06:20:21.842Z,78.56
2022-12-11T06:22:48.514Z,78.23
2022-12-11T06:25:15.101Z,79.03
2022-12-11T06:27:41.759Z,79.55
2022-12-11T06:30:09.165Z,80.78
2022-12-11T06:32:35.818Z,80.50
2022-12-11T06:35:02.431Z,80.32
2022-12-11T06:37:29.166Z,80.23
2022-12-11T06:39:55.727Z,80.61
2022-12-11T06:42:22.381Z,78.95
2022-12-11T06:44:49.138Z,79.13
2022-12-11T06:47:15.735Z,79.55
2022-12-11T06:49:42.460Z,78.07
2022-12-11T06:52:12.455Z,77.03
2022-12-11T06:54:41.708Z,76.95
2022-12-11T06:57:09.394Z,77.33
2022-12-11T06:59:36.084Z,74.82
2022-12-11T07:02:03.027Z,74.16
2022-12-11T07:04:30.664Z,74.75
2022-12-11T07:06:57.538Z,75.12
2022-12-11T07:09:24.663Z,76.06
2022-12-11T07:11:51.786Z,76.67
2022-12-11T07:14:18.501Z,76.94
2022-12-11T07:16:45.395Z,76.11
2022-12-11T07:19:12.110Z,75.23
2022-12-11T07:21:38.761Z,75.13
2022-12-11T07:24:05.784Z,75.42
2022-12-11T07:26:32.636Z,75.43
2022-12-11T07:28:59.538Z,75.82
2022-12-11T07:31:27.193Z,76.41
2022-12-11T07:33:57.805Z,76.65
2022-12-11T07:36:24.870Z,76.29
2022-12-11T07:38:51.728Z,79.96
2022-12-11T07:41:18.480Z,77.51
2022-12-11T07:43:45.565Z,79.22
2022-12-11T07:46:16.880Z,78.74
2022-12-11T07:48:44.927Z,79.07
2022-12-11T07:51:16.485Z,77.56
2022-12-11T07:53:47.241Z,78.40
2022-12-11T07:56:14.265Z,78.86
2022-12-11T07:58:40.895Z,79.30
2022-12-11T08:01:18.412Z,80.36
2022-12-11T08:03:45.147Z,79.72
2022-12-11T08:06:11.818Z,79.14
2022-12-11T08:08:38.905Z,80.57
2022-12-11T08:11:06.605Z,80.05
2022-12-11T08:13:33.454Z,78.29
2022-12-11T08:16:02.849Z,78.74
2022-12-11T08:18:30.455Z,79.54
2022-12-11T08:20:57.111Z,79.08
2022-12-11T08:23:23.753Z,79.38
2022-12-11T08:25:50.403Z,78.33
2022-12-11T08:28:17.041Z,77.51
2022-12-11T08:30:43.690Z,78.60
2022-12-11T08:33:10.285Z,77.18
2022-12-11T08:35:39.800Z,77.00
2022-12-11T08:38:06.446Z,76.88
2022-12-11T08:40:33.069Z,77.73
2022-12-11T08:42:59.750Z,78.33
2022-12-11T08:45:27.170Z,78.34
2022-12-11T08:47:54.083Z,79.03
2022-12-11T08:50:20.767Z,79.85
2022-12-11T08:52:47.491Z,81.48
2022-12-11T08:55:14.302Z,79.74
2022-12-11T08:57:41.131Z,79.11
2022-12-11T09:00:09.270Z,79.89
2022-12-11T09:02:35.994Z,79.03
2022-12-11T09:05:02.787Z,79.03
2022-12-11T09:07:29.533Z,78.12
2022-12-11T09:09:56.105Z,79.27
2022-12-11T09:12:23.112Z,80.02
2022-12-11T09:14:49.841Z,80.94
2022-12-11T09:17:16.565Z,80.54
2022-12-11T09:19:43.165Z,80.14
2022-12-11T09:22:11.269Z,78.33
2022-12-11T09:24:38.396Z,78.04
2022-12-11T09:27:05.500Z,78.47
2022-12-11T09:29:32.609Z,77.60
2022-12-11T09:31:59.178Z,76.75
2022-12-11T09:34:29.240Z,76.81
2022-12-11T09:36:56.378Z,77.32
2022-12-11T09:39:23.047Z,76.81
2022-12-11T09:41:58.181Z,76.04
2022-12-11T09:44:50.575Z,76.83
2022-12-11T09:47:36.181Z,76.26
2022-12-11T09:50:04.904Z,75.87
2022-12-11T09:52:38.535Z,75.56
2022-12-11T09:55:26.097Z,78.14
2022-12-11T09:58:11.468Z,77.50
2022-12-11T10:00:46.701Z,78.37
2022-12-11T10:03:31.914Z,78.26
2022-12-11T10:06:26.264Z,77.98
2022-12-11T10:09:14.706Z,77.51
2022-12-11T10:11:57.118Z,76.37
2022-12-11T10:14:52.169Z,76.69
2022-12-11T10:17:21.484Z,76.62
2022-12-11T10:19:48.179Z,77.61
2022-12-11T10:22:24.697Z,77.32
2022-12-11T10:25:11.612Z,76.25
2022-12-11T10:27:39.135Z,75.82
2022-12-11T10:30:15.056Z,76.30
2022-12-11T10:32:59.701Z,76.99
2022-12-11T10:35:39.770Z,76.59
2022-12-11T10:38:29.516Z,77.64
2022-12-11T10:40:58.596Z,77.33
2022-12-11T10:43:36.184Z,78.07
2022-12-11T10:46:03.431Z,77.63
2022-12-11T10:48:30.106Z,77.52
2022-12-11T10:51:05.516Z,78.27
2022-12-11T10:53:32.641Z,77.98
2022-12-11T10:55:59.842Z,78.76
2022-12-11T10:58:28.647Z,78.51
2022-12-11T11:01:14.490Z,77.06
2022-12-11T11:04:06.748Z,78.58
2022-12-11T11:06:33.496Z,78.25
2022-12-11T11:09:01.282Z,76.27
2022-12-11T11:11:38.240Z,78.88
2022-12-11T11:14:31.287Z,79.08
2022-12-11T11:16:58.036Z,79.67
2022-12-11T11:19:24.656Z,79.90
2022-12-11T11:21:56.660Z,79.65
2022-12-11T11:24:45.390Z,79.64
2022-12-11T11:27:20.279Z,78.84
2022-12-11T11:29:52.832Z,78.33
2022-12-11T11:32:22.673Z,80.24
2022-12-11T11:34:49.425Z,80.31
2022-12-11T11:37:36.223Z,80.08
2022-12-11T11:40:08.448Z,79.38
2022-12-11T11:42:44.186Z,79.53
2022-12-11T11:45:16.773Z,80.59
2022-12-11T11:47:50.992Z,80.09
2022-12-11T11:50:22.552Z,80.01
2022-12-11T11:53:02.860Z,80.75
2022-12-11T11:56:23.289Z,80.63
2022-12-11T11:59:11.439Z,80.50
2022-12-11T12:01:38.039Z,80.82
2022-12-11T12:04:04.921Z,80.39
2022-12-11T12:06:50.856Z,79.79
2022-12-11T12:09:20.781Z,81.06
2022-12-11T12:11:56.588Z,81.57
2022-12-11T12:14:51.994Z,81.68
2022-12-11T12:17:56.059Z,82.38
2022-12-11T12:20:29.065Z,83.30
2022-12-11T12:23:20.606Z,82.52
2022-12-11T12:26:01.846Z,82.78
2022-12-11T12:28:41.468Z,82.92
2022-12-11T12:31:20.751Z,82.35
2022-12-11T12:34:18.377Z,82.09
2022-12-11T12:37:00.939Z,81.45
2022-12-11T12:39:33.581Z,81.17
2022-12-11T12:42:16.284Z,80.72
2022-12-11T12:45:03.939Z,81.57
2022-12-11T12:47:32.550Z,82.46
2022-12-11T12:49:59.168Z,82.92
2022-12-11T12:52:30.811Z,83.41
2022-12-11T12:55:16.503Z,82.03
2022-12-11T12:58:00.337Z,81.00
2022-12-11T13:00:27.097Z,82.09
2022-12-11T13:02:56.080Z,82.09
2022-12-11T13:05:27.193Z,82.25
2022-12-11T13:07:58.352Z,80.55
2022-12-11T13:10:33.364Z,80.66
2022-12-11T13:13:00.805Z,82.83
2022-12-11T13:15:34.949Z,83.82
2022-12-11T13:18:02.365Z,84.41
2022-12-11T13:20:30.901Z,84.88
2022-12-11T13:23:06.832Z,84.59
2022-12-11T13:25:52.452Z,85.08
2022-12-11T13:28:47.969Z,84.42
2022-12-11T13:31:14.595Z,84.85
2022-12-11T13:33:54.925Z,87.03
2022-12-11T13:36:24.603Z,87.26
2022-12-11T13:39:08.901Z,87.91
2022-12-11T13:41:36.457Z,89.73
2022-12-11T13:44:03.242Z,90.12
2022-12-11T13:46:31.920Z,90.08
2022-12-11T13:49:01.110Z,91.31
2022-12-11T13:51:30.255Z,92.06
2022-12-11T13:54:17.799Z,92.32
2022-12-11T13:57:00.696Z,91.82
2022-12-11T13:59:32.785Z,92.14
2022-12-11T14:02:01.609Z,92.64
2022-12-11T14:04:28.317Z,92.47
2022-12-11T14:06:56.072Z,93.34
2022-12-11T14:09:24.044Z,93.31
2022-12-11T14:11:56.503Z,92.12
2022-12-11T14:14:40.719Z,92.37
2022-12-11T14:17:12.614Z,92.16
2022-12-11T14:19:39.273Z,90.10
2022-12-11T14:22:08.025Z,89.60
2022-12-11T14:24:34.712Z,90.03
2022-12-11T14:27:01.419Z,90.10
2022-12-11T14:29:30.424Z,91.56
2022-12-11T14:32:00.088Z,90.73
2022-12-11T14:34:38.549Z,91.46
2022-12-11T14:37:06.291Z,91.09
2022-12-11T14:39:54.470Z,90.99
2022-12-11T14:42:23.405Z,90.79
2022-12-11T14:44:50.976Z,90.71
2022-12-11T14:47:23.041Z,90.95
2022-12-11T14:50:15.519Z,89.74
2022-12-11T14:52:43.735Z,89.52
2022-12-11T14:55:18.267Z,89.58
2022-12-11T14:57:45.955Z,89.13
2022-12-11T15:00:38.169Z,87.99
2022-12-11T15:03:23.290Z,87.58
2022-12-11T15:05:55.017Z,86.68
2022-12-11T15:08:32.514Z,87.67
2022-12-11T15:11:12.245Z,87.32
2022-12-11T15:13:55.060Z,87.71
2022-12-11T15:16:22.403Z,87.13
2022-12-11T15:18:53.487Z,87.20
2022-12-11T15:21:20.314Z,86.64
2022-12-11T15:23:54.812Z,86.08
2022-12-11T15:26:21.763Z,86.69
2022-12-11T15:28:48.536Z,86.33
2022-12-11T15:31:27.599Z,87.17
2022-12-11T15:33:54.236Z,86.86
2022-12-11T15:36:33.208Z,86.41
2022-12-11T15:38:59.868Z,86.84
2022-12-11T15:41:26.756Z,87.22
2022-12-11T16:45:54.514Z,88.99
2022-12-11T16:48:21.454Z,88.29
2022-12-11T16:50:48.043Z,89.53
2022-12-11T16:53:15.370Z,86.93
2022-12-11T16:55:42.509Z,84.55
2022-12-11T16:58:09.549Z,84.86
2022-12-11T17:00:36.113Z,85.65
2022-12-11T17:03:02.815Z,84.41
2022-12-11T17:05:29.371Z,83.87
2022-12-11T17:07:56.083Z,84.92
2022-12-11T17:10:22.901Z,83.78
2022-12-11T17:12:49.522Z,84.08
2022-12-11T17:15:16.144Z,85.16
2022-12-11T17:17:45.869Z,84.67
2022-12-11T17:20:12.629Z,84.85
2022-12-11T17:22:39.298Z,84.88
2022-12-11T17:25:06.182Z,85.07
2022-12-11T17:27:32.749Z,86.33
2022-12-11T17:29:59.435Z,84.66
2022-12-11T17:32:26.202Z,84.20
2022-12-11T17:34:52.820Z,83.81
2022-12-11T17:37:20.180Z,84.41
2022-12-11T17:53:30.388Z,84.27
2022-12-11T17:56:00.065Z,84.25
2022-12-11T17:58:27.010Z,84.27
2022-12-11T18:00:54.273Z,84.71
2022-12-11T18:03:21.235Z,85.13
2022-12-11T18:05:52.104Z,83.64
2022-12-11T18:08:21.637Z,83.70
2022-12-11T18:10:48.356Z,83.23
2022-12-11T18:13:14.980Z,83.25
2022-12-11T18:15:42.050Z,83.39
2022-12-11T18:18:08.917Z,82.47
2022-12-11T18:20:35.706Z,82.67
2022-12-11T18:23:02.519Z,83.82
2022-12-11T18:25:29.236Z,83.40
2022-12-11T18:27:56.040Z,83.46
2022-12-11T18:30:23.638Z,83.26
2022-12-11T18:32:50.789Z,82.96
2022-12-11T18:35:17.545Z,83.42
2022-12-11T18:37:44.320Z,84.39
2022-12-11T18:40:11.986Z,84.94
2022-12-11T18:42:38.665Z,84.48
2022-12-11T18:45:05.910Z,83.75
2022-12-11T18:47:32.539Z,84.05
2022-12-11T18:50:03.922Z,83.58
2022-12-11T18:52:33.942Z,83.33
2022-12-11T18:55:00.569Z,83.88
2022-12-11T18:57:27.214Z,83.93
2022-12-11T18:59:54.107Z,83.50
2022-12-11T19:02:21.076Z,83.54
2022-12-11T19:04:47.742Z,82.84
2022-12-11T19:07:14.461Z,84.01
2022-12-11T19:09:46.263Z,84.28
2022-12-11T19:12:14.754Z,84.36
2022-12-11T19:14:41.551Z,85.35
2022-12-11T19:17:08.155Z,84.35
2022-12-11T19:19:36.034Z,83.98
2022-12-11T19:22:02.764Z,84.44
2022-12-11T19:24:29.409Z,84.07
2022-12-11T19:26:56.019Z,84.99
2022-12-11T19:29:27.889Z,84.44
2022-12-11T19:31:55.642Z,83.79
2022-12-11T19:34:22.687Z,84.38
2022-12-11T19:36:49.480Z,83.94
2022-12-11T19:39:16.087Z,83.06
2022-12-11T19:41:42.886Z,82.88
2022-12-11T19:44:09.579Z,82.90
2022-12-11T19:46:36.326Z,83.01
2022-12-11T19:49:03.083Z,83.76
2022-12-11T19:51:38.656Z,84.63
2022-12-11T19:54:09.355Z,84.11
2022-12-11T19:56:36.166Z,83.81
2022-12-11T19:59:04.214Z,83.70
2022-12-11T20:01:32.122Z,83.80
2022-12-11T20:04:00.344Z,83.97
2022-12-11T20:06:31.374Z,84.21
2022-12-11T20:08:58.323Z,82.86
2022-12-11T20:11:25.005Z,82.15
2022-12-11T20:13:52.004Z,83.20
2022-12-11T20:16:28.862Z,83.05
2022-12-11T20:19:05.755Z,83.04
2022-12-11T20:21:32.521Z,83.11
2022-12-11T20:23:59.542Z,83.01
2022-12-11T20:26:26.335Z,83.64
2022-12-11T20:28:53.304Z,84.52
2022-12-11T20:31:23.310Z,82.73
2022-12-11T20:33:50.367Z,82.14
2022-12-11T20:36:17.643Z,83.57
2022-12-11T20:38:44.493Z,83.76
2022-12-11T20:41:15.808Z,84.67
2022-12-11T20:43:42.501Z,85.26
2022-12-11T20:46:10.025Z,84.38
2022-12-11T20:48:36.998Z,82.06
2022-12-11T20:51:04.068Z,81.93
2022-12-11T20:53:30.835Z,82.00
2022-12-11T20:55:57.491Z,82.75
2022-12-11T20:58:24.288Z,81.78
2022-12-11T21:00:51.058Z,81.62
2022-12-11T21:03:17.920Z,82.48
2022-12-11T21:05:45.200Z,82.87
2022-12-11T21:08:12.107Z,83.61
2022-12-11T21:10:42.677Z,83.41
2022-12-11T21:13:09.304Z,83.91
2022-12-11T21:15:37.180Z,84.36
2022-12-11T21:18:03.980Z,84.57
2022-12-11T21:20:30.557Z,84.61
2022-12-11T21:22:57.638Z,84.32
2022-12-11T21:25:25.020Z,84.43
2022-12-11T21:27:51.641Z,84.83
2022-12-11T21:30:18.453Z,85.28
2022-12-11T21:32:45.087Z,84.46
2022-12-11T21:35:12.054Z,85.44
2022-12-11T21:37:41.683Z,84.72
2022-12-11T21:40:09.233Z,84.59
2022-12-11T21:42:35.830Z,83.49
2022-12-11T21:47:50.209Z,83.62
2022-12-11T21:50:17.099Z,83.99
2022-12-11T21:52:44.118Z,83.05
2022-12-11T21:55:11.666Z,83.58
2022-12-11T21:57:38.594Z,82.79
2022-12-11T22:00:05.933Z,83.48
2022-12-11T22:02:37.480Z,83.41
2022-12-11T22:05:07.651Z,82.35
2022-12-11T22:07:34.256Z,82.91
2022-12-11T22:10:00.933Z,82.79
2022-12-11T22:12:28.035Z,83.53
2022-12-11T22:14:54.655Z,84.83
2022-12-11T22:17:21.498Z,83.86
2022-12-11T22:19:48.265Z,84.54
2022-12-11T22:22:14.954Z,85.39
2022-12-11T22:24:41.686Z,85.72
2022-12-11T22:27:08.346Z,85.30
2022-12-11T22:29:35.580Z,85.69
2022-12-11T22:32:02.237Z,86.16
2022-12-11T22:34:28.994Z,85.08
2022-12-11T22:36:56.298Z,85.90
2022-12-11T22:39:23.192Z,86.68
2022-12-11T22:41:49.868Z,86.26
2022-12-11T22:44:18.428Z,87.59
2022-12-11T22:46:49.721Z,85.40
2022-12-11T22:49:17.631Z,84.69
2022-12-11T22:51:44.246Z,86.38
2022-12-11T22:54:11.414Z,84.66
2022-12-11T22:56:38.330Z,84.72
2022-12-11T22:59:04.957Z,85.09
2022-12-11T23:01:31.891Z,85.22
2022-12-11T23:03:58.627Z,85.51
2022-12-11T23:06:25.390Z,86.15
2022-12-11T23:08:53.014Z,86.00
2022-12-11T23:11:24.860Z,86.34
2022-12-11T23:13:51.985Z,87.54
2022-12-11T23:16:18.683Z,88.73
2022-12-11T23:18:45.441Z,89.66
2022-12-11T23:21:12.088Z,89.73
2022-12-11T23:23:38.795Z,88.69
2022-12-11T23:26:05.913Z,87.88
2022-12-11T23:28:32.494Z,87.54
2022-12-11T23:30:59.203Z,86.25
2022-12-11T23:33:26.048Z,85.49
2022-12-11T23:35:52.774Z,85.11
2022-12-11T23:38:19.448Z,84.79
2022-12-11T23:40:46.106Z,85.42
2022-12-11T23:43:12.702Z,85.07
2022-12-11T23:45:39.376Z,86.01
2022-12-11T23:48:06.073Z,87.01
2022-12-11T23:50:33.047Z,86.30
2022-12-11T23:52:59.656Z,87.61
2022-12-11T23:55:27.417Z,88.75
2022-12-11T23:57:54.135Z,90.30
